Sunday — SVA2329 — position and weather

sailwx.info

Track history (hours):
 
Tides and Currents Weather Stations Pressure Air Temp Water Temp Dewpoint Dewpoint Depression Visibility Wind Speed Wind Dir Waves Ship Positions

Sunday

Last reported at 2018-Jun-12 08:00 UTC. Time now 2018-Jun-22 11:28 UTC.
Position N 36°59' E 025°21'.
Warning: this ship's position is 10 days out of date.

Length 13 m.

MMSI: 239470100.

Date/timePositionNaut miles runAvg speedWind from/ knotsBaromVisibWave heightAir tempDewpointWater temp
2018-Jun-12 08:00N 36°59' E 025°21'4 7.3
2018-Jun-12 07:30N 37°03' E 025°19'3 5.6
2018-Jun-12 06:59N 37°05' E 025°19'3 6.4
2018-Jun-12 06:30N 37°08' E 025°18'2 3.9
2018-Jun-12 06:00N 37°10' E 025°17'2 4.0
2018-Jun-12 05:30N 37°10' E 025°15'8 0.4
2018-Jun-11 10:33N 37°06' E 025°06'0 7.2
2018-Jun-11 10:30N 37°06' E 025°05'4 7.1
2018-Jun-11 10:00N 37°08' E 025°01'3 6.0
2018-Jun-11 09:30N 37°09' E 024°57'67 2.7
2018-Jun-10 08:58N 37°43' E 023°45'2 5.2
2018-Jun-10 08:29N 37°45' E 023°44'2 4.1
2018-Jun-10 08:00N 37°47' E 023°43'3 6.1
2018-Jun-10 07:30N 37°49' E 023°41'3 5.8
2018-Jun-10 07:00N 37°52' E 023°41'2 3.8
2018-Jun-10 06:30N 37°54' E 023°42'1 1.7
2018-Jun-10 05:59N 37°55' E 023°42'0 0.0
2018-Jun-10 05:29N 37°55' E 023°42'0 0.0
2018-Jun-10 05:00N 37°55' E 023°42'0 0.0
2018-Jun-10 04:27N 37°55' E 023°42'0 0.0
2018-Jun-10 04:00N 37°55' E 023°42'0 0.0
2018-Jun-10 03:30N 37°55' E 023°42'0 0.0
2018-Jun-10 03:00N 37°55' E 023°42'0 0.0
2018-Jun-10 02:30N 37°55' E 023°42'0 0.0
2018-Jun-10 02:00N 37°55' E 023°42'0 0.0
2018-Jun-10 01:30N 37°55' E 023°42'0 0.0
2018-Jun-10 01:00N 37°55' E 023°42'0 0.0
2018-Jun-10 00:30N 37°55' E 023°42'0 0.0
2018-Jun-10 00:00N 37°55' E 023°42'0 0.0
2018-Jun-09 23:30N 37°55' E 023°42'0 0.0
2018-Jun-09 23:00N 37°55' E 023°42'0 0.0
2018-Jun-09 22:30N 37°55' E 023°42'0 0.0
2018-Jun-09 22:00N 37°55' E 023°42'0 0.0
2018-Jun-09 21:30N 37°55' E 023°42'0 0.0
2018-Jun-09 21:00N 37°55' E 023°42'0 0.0
2018-Jun-09 20:30N 37°55' E 023°42'0 0.0
2018-Jun-09 20:00N 37°55' E 023°42'0 0.0
2018-Jun-09 19:30N 37°55' E 023°42'0 0.0
2018-Jun-09 19:00N 37°55' E 023°42'0 0.0
2018-Jun-09 18:30N 37°55' E 023°42'0 0.0
2018-Jun-09 18:00N 37°55' E 023°42'0 0.0
2018-Jun-09 17:30N 37°55' E 023°42'0 0.0
2018-Jun-09 17:00N 37°55' E 023°42'0 0.0
2018-Jun-09 16:30N 37°55' E 023°42'0 0.0
2018-Jun-09 16:00N 37°55' E 023°42'0 0.0
2018-Jun-09 15:00N 37°55' E 023°42'0 0.0
2018-Jun-09 14:30N 37°55' E 023°42'0 0.0
2018-Jun-09 14:00N 37°55' E 023°42'0 0.0
2018-Jun-09 13:30N 37°55' E 023°42'0 0.0
2018-Jun-09 13:00N 37°55' E 023°42'0 0.0
2018-Jun-09 04:36N 37°55' E 023°42'0 0.0
2018-Jun-09 04:30N 37°55' E 023°42'0 0.0
2018-Jun-09 04:00N 37°55' E 023°42'0 0.0
2018-Jun-09 03:30N 37°55' E 023°42'0 0.0
2018-Jun-09 03:00N 37°55' E 023°42'0 0.0
2018-Jun-09 02:30N 37°55' E 023°42'0 0.0
2018-Jun-09 02:00N 37°55' E 023°42'0 0.0
2018-Jun-09 01:30N 37°55' E 023°42'0 0.0
2018-Jun-09 01:00N 37°55' E 023°42'0 0.0
2018-Jun-09 00:30N 37°55' E 023°42'0 0.0
2018-Jun-09 00:00N 37°55' E 023°42'0 0.0
2018-Jun-08 23:30N 37°55' E 023°42'0 0.0
2018-Jun-08 23:00N 37°55' E 023°42'0 0.0
2018-Jun-08 22:30N 37°55' E 023°42'0 0.0
2018-Jun-08 22:00N 37°55' E 023°42'0 0.0
2018-Jun-08 21:30N 37°55' E 023°42'0 0.0
2018-Jun-08 20:54N 37°55' E 023°42'0 0.0
2018-Jun-08 20:30N 37°55' E 023°42'0 0.0
2018-Jun-08 20:00N 37°55' E 023°42'0 0.0
2018-Jun-08 19:30N 37°55' E 023°42'0 0.0
2018-Jun-08 19:00N 37°55' E 023°42'0 0.0
2018-Jun-08 18:30N 37°55' E 023°42'0 0.1
2018-Jun-08 17:59N 37°55' E 023°42'3 5.8
2018-Jun-08 17:30N 37°53' E 023°39'3 6.7
2018-Jun-08 17:00N 37°52' E 023°36'3 6.0
2018-Jun-08 16:30N 37°50' E 023°33'4 7.3
2018-Jun-08 16:00N 37°48' E 023°29'2 4.7
2018-Jun-08 15:30N 37°46' E 023°27'1 1.0
2018-Jun-08 15:00N 37°46' E 023°26'0 0.0
2018-Jun-08 14:30N 37°46' E 023°26'0 0.9
2018-Jun-08 14:00N 37°46' E 023°25'3 6.6
2018-Jun-08 13:30N 37°44' E 023°22'3 5.8
2018-Jun-08 13:00N 37°42' E 023°20'2 0.1
2018-Jun-07 14:39N 37°40' E 023°19'1 4.1
2018-Jun-07 14:30N 37°40' E 023°18'2 4.4
2018-Jun-07 14:00N 37°39' E 023°16'1 0.1
2018-Jun-07 09:24N 37°39' E 023°16'3 7.7
2018-Jun-07 08:59N 37°39' E 023°20'13 0.7
2018-Jun-06 15:13N 37°29' E 023°30'1 6.2
2018-Jun-06 14:59N 37°28' E 023°31'6 1.6
2018-Jun-06 11:32N 37°22' E 023°29'4 0.1
2018-Jun-04 10:09N 37°26' E 023°32'1 5.8
2018-Jun-04 10:00N 37°27' E 023°32'15 0.6
2018-Jun-03 09:41N 37°40' E 023°25'1 1.8
2018-Jun-03 08:55N 37°42' E 023°25'1 1.1
2018-Jun-03 08:25N 37°42' E 023°26'0 0.1
2018-Jun-03 07:58N 37°42' E 023°26'0 0.0
2018-Jun-03 07:28N 37°42' E 023°26'0 0.0
2018-Jun-03 06:58N 37°42' E 023°26'0 0.0
2018-Jun-03 06:28N 37°42' E 023°26'0 0.0
2018-Jun-03 05:58N 37°42' E 023°26'0 0.0
2018-Jun-03 05:28N 37°42' E 023°26'0 0.0
2018-Jun-03 04:58N 37°42' E 023°26'0 0.0
2018-Jun-03 04:28N 37°42' E 023°26'0 0.0
2018-Jun-03 03:58N 37°42' E 023°26'0 0.0
2018-Jun-03 03:28N 37°42' E 023°26'0 0.0
2018-Jun-03 02:58N 37°42' E 023°26'0 0.0
2018-Jun-03 02:28N 37°42' E 023°26'0 0.0
2018-Jun-03 01:58N 37°42' E 023°26'0 0.0
2018-Jun-03 01:28N 37°42' E 023°26'0 0.0
2018-Jun-03 00:58N 37°42' E 023°26'0 0.0
2018-Jun-03 00:22N 37°42' E 023°26'0 0.0
2018-Jun-02 23:58N 37°42' E 023°26'0 0.0
2018-Jun-02 23:28N 37°42' E 023°26'0 0.0
2018-Jun-02 22:58N 37°42' E 023°26'0 0.0
2018-Jun-02 22:28N 37°42' E 023°26'0 0.0
2018-Jun-02 21:58N 37°42' E 023°26'0 0.0
2018-Jun-02 21:28N 37°42' E 023°26'0 0.0
2018-Jun-02 20:58N 37°42' E 023°26'0 0.0
2018-Jun-02 20:28N 37°42' E 023°26'0 0.0
2018-Jun-02 19:58N 37°42' E 023°26'0 0.0
2018-Jun-02 18:16N 37°42' E 023°26'4 2.2
2018-Jun-02 16:13N 37°41' E 023°31'2 6.5
2018-Jun-02 15:59N 37°43' E 023°32'3 6.4
2018-Jun-02 15:29N 37°45' E 023°34'3 6.4
2018-Jun-02 15:00N 37°48' E 023°35'3 6.1
2018-Jun-02 14:30N 37°51' E 023°38'3 6.4
2018-Jun-02 14:00N 37°53' E 023°40'2 4.4
2018-Jun-02 13:28N 37°55' E 023°42'0 0.0
2018-Jun-02 12:58N 37°55' E 023°42'0 0.0
2018-Jun-02 12:28N 37°55' E 023°42'0 0.0
2018-Jun-02 11:58N 37°55' E 023°42'0 0.0
2018-Jun-02 11:28N 37°55' E 023°42'0 0.0
2018-Jun-02 10:58N 37°55' E 023°42'0 0.0
2018-Jun-02 10:28N 37°55' E 023°42'0 0.0
2018-Jun-02 09:58N 37°55' E 023°42'0 0.0
2018-Jun-02 09:28N 37°55' E 023°42'0 0.0
2018-Jun-02 08:58N 37°55' E 023°42'0 0.0
2018-Jun-02 08:28N 37°55' E 023°42'  
Track history (hours):
 
Tides and Currents Weather Stations Pressure Air Temp Water Temp Dewpoint Dewpoint Depression Visibility Wind Speed Wind Dir Waves Ship Positions

Sunday

Last reported at 2018-Jun-12 08:00 UTC. Time now 2018-Jun-22 11:28 UTC.
Position N 36°59' E 025°21'.
Warning: this ship's position is 10 days out of date.

Length 13 m.

MMSI: 239470100.

Date/timePositionNaut miles runAvg speedWind from/ knotsBaromVisibWave heightAir tempDewpointWater temp
2018-Jun-12 08:00N 36°59' E 025°21'4 7.3
2018-Jun-12 07:30N 37°03' E 025°19'3 5.6
2018-Jun-12 06:59N 37°05' E 025°19'3 6.4
2018-Jun-12 06:30N 37°08' E 025°18'2 3.9
2018-Jun-12 06:00N 37°10' E 025°17'2 4.0
2018-Jun-12 05:30N 37°10' E 025°15'8 0.4
2018-Jun-11 10:33N 37°06' E 025°06'0 7.2
2018-Jun-11 10:30N 37°06' E 025°05'4 7.1
2018-Jun-11 10:00N 37°08' E 025°01'3 6.0
2018-Jun-11 09:30N 37°09' E 024°57'67 2.7
2018-Jun-10 08:58N 37°43' E 023°45'2 5.2
2018-Jun-10 08:29N 37°45' E 023°44'2 4.1
2018-Jun-10 08:00N 37°47' E 023°43'3 6.1
2018-Jun-10 07:30N 37°49' E 023°41'3 5.8
2018-Jun-10 07:00N 37°52' E 023°41'2 3.8
2018-Jun-10 06:30N 37°54' E 023°42'1 1.7
2018-Jun-10 05:59N 37°55' E 023°42'0 0.0
2018-Jun-10 05:29N 37°55' E 023°42'0 0.0
2018-Jun-10 05:00N 37°55' E 023°42'0 0.0
2018-Jun-10 04:27N 37°55' E 023°42'0 0.0
2018-Jun-10 04:00N 37°55' E 023°42'0 0.0
2018-Jun-10 03:30N 37°55' E 023°42'0 0.0
2018-Jun-10 03:00N 37°55' E 023°42'0 0.0
2018-Jun-10 02:30N 37°55' E 023°42'0 0.0
2018-Jun-10 02:00N 37°55' E 023°42'0 0.0
2018-Jun-10 01:30N 37°55' E 023°42'0 0.0
2018-Jun-10 01:00N 37°55' E 023°42'0 0.0
2018-Jun-10 00:30N 37°55' E 023°42'0 0.0
2018-Jun-10 00:00N 37°55' E 023°42'0 0.0
2018-Jun-09 23:30N 37°55' E 023°42'0 0.0
2018-Jun-09 23:00N 37°55' E 023°42'0 0.0
2018-Jun-09 22:30N 37°55' E 023°42'0 0.0
2018-Jun-09 22:00N 37°55' E 023°42'0 0.0
2018-Jun-09 21:30N 37°55' E 023°42'0 0.0
2018-Jun-09 21:00N 37°55' E 023°42'0 0.0
2018-Jun-09 20:30N 37°55' E 023°42'0 0.0
2018-Jun-09 20:00N 37°55' E 023°42'0 0.0
2018-Jun-09 19:30N 37°55' E 023°42'0 0.0
2018-Jun-09 19:00N 37°55' E 023°42'0 0.0
2018-Jun-09 18:30N 37°55' E 023°42'0 0.0
2018-Jun-09 18:00N 37°55' E 023°42'0 0.0
2018-Jun-09 17:30N 37°55' E 023°42'0 0.0
2018-Jun-09 17:00N 37°55' E 023°42'0 0.0
2018-Jun-09 16:30N 37°55' E 023°42'0 0.0
2018-Jun-09 16:00N 37°55' E 023°42'0 0.0
2018-Jun-09 15:00N 37°55' E 023°42'0 0.0
2018-Jun-09 14:30N 37°55' E 023°42'0 0.0
2018-Jun-09 14:00N 37°55' E 023°42'0 0.0
2018-Jun-09 13:30N 37°55' E 023°42'0 0.0
2018-Jun-09 13:00N 37°55' E 023°42'0 0.0
2018-Jun-09 04:36N 37°55' E 023°42'0 0.0
2018-Jun-09 04:30N 37°55' E 023°42'0 0.0
2018-Jun-09 04:00N 37°55' E 023°42'0 0.0
2018-Jun-09 03:30N 37°55' E 023°42'0 0.0
2018-Jun-09 03:00N 37°55' E 023°42'0 0.0
2018-Jun-09 02:30N 37°55' E 023°42'0 0.0
2018-Jun-09 02:00N 37°55' E 023°42'0 0.0
2018-Jun-09 01:30N 37°55' E 023°42'0 0.0
2018-Jun-09 01:00N 37°55' E 023°42'0 0.0
2018-Jun-09 00:30N 37°55' E 023°42'0 0.0
2018-Jun-09 00:00N 37°55' E 023°42'0 0.0
2018-Jun-08 23:30N 37°55' E 023°42'0 0.0
2018-Jun-08 23:00N 37°55' E 023°42'0 0.0
2018-Jun-08 22:30N 37°55' E 023°42'0 0.0
2018-Jun-08 22:00N 37°55' E 023°42'0 0.0
2018-Jun-08 21:30N 37°55' E 023°42'0 0.0
2018-Jun-08 20:54N 37°55' E 023°42'0 0.0
2018-Jun-08 20:30N 37°55' E 023°42'0 0.0
2018-Jun-08 20:00N 37°55' E 023°42'0 0.0
2018-Jun-08 19:30N 37°55' E 023°42'0 0.0
2018-Jun-08 19:00N 37°55' E 023°42'0 0.0
2018-Jun-08 18:30N 37°55' E 023°42'0 0.1
2018-Jun-08 17:59N 37°55' E 023°42'3 5.8
2018-Jun-08 17:30N 37°53' E 023°39'3 6.7
2018-Jun-08 17:00N 37°52' E 023°36'3 6.0
2018-Jun-08 16:30N 37°50' E 023°33'4 7.3
2018-Jun-08 16:00N 37°48' E 023°29'2 4.7
2018-Jun-08 15:30N 37°46' E 023°27'1 1.0
2018-Jun-08 15:00N 37°46' E 023°26'0 0.0
2018-Jun-08 14:30N 37°46' E 023°26'0 0.9
2018-Jun-08 14:00N 37°46' E 023°25'3 6.6
2018-Jun-08 13:30N 37°44' E 023°22'3 5.8
2018-Jun-08 13:00N 37°42' E 023°20'2 0.1
2018-Jun-07 14:39N 37°40' E 023°19'1 4.1
2018-Jun-07 14:30N 37°40' E 023°18'2 4.4
2018-Jun-07 14:00N 37°39' E 023°16'1 0.1
2018-Jun-07 09:24N 37°39' E 023°16'3 7.7
2018-Jun-07 08:59N 37°39' E 023°20'13 0.7
2018-Jun-06 15:13N 37°29' E 023°30'1 6.2
2018-Jun-06 14:59N 37°28' E 023°31'6 1.6
2018-Jun-06 11:32N 37°22' E 023°29'4 0.1
2018-Jun-04 10:09N 37°26' E 023°32'1 5.8
2018-Jun-04 10:00N 37°27' E 023°32'15 0.6
2018-Jun-03 09:41N 37°40' E 023°25'1 1.8
2018-Jun-03 08:55N 37°42' E 023°25'1 1.1
2018-Jun-03 08:25N 37°42' E 023°26'0 0.1
2018-Jun-03 07:58N 37°42' E 023°26'0 0.0
2018-Jun-03 07:28N 37°42' E 023°26'0 0.0
2018-Jun-03 06:58N 37°42' E 023°26'0 0.0
2018-Jun-03 06:28N 37°42' E 023°26'0 0.0
2018-Jun-03 05:58N 37°42' E 023°26'0 0.0
2018-Jun-03 05:28N 37°42' E 023°26'0 0.0
2018-Jun-03 04:58N 37°42' E 023°26'0 0.0
2018-Jun-03 04:28N 37°42' E 023°26'0 0.0
2018-Jun-03 03:58N 37°42' E 023°26'0 0.0
2018-Jun-03 03:28N 37°42' E 023°26'0 0.0
2018-Jun-03 02:58N 37°42' E 023°26'0 0.0
2018-Jun-03 02:28N 37°42' E 023°26'0 0.0
2018-Jun-03 01:58N 37°42' E 023°26'0 0.0
2018-Jun-03 01:28N 37°42' E 023°26'0 0.0
2018-Jun-03 00:58N 37°42' E 023°26'0 0.0
2018-Jun-03 00:22N 37°42' E 023°26'0 0.0
2018-Jun-02 23:58N 37°42' E 023°26'0 0.0
2018-Jun-02 23:28N 37°42' E 023°26'0 0.0
2018-Jun-02 22:58N 37°42' E 023°26'0 0.0
2018-Jun-02 22:28N 37°42' E 023°26'0 0.0
2018-Jun-02 21:58N 37°42' E 023°26'0 0.0
2018-Jun-02 21:28N 37°42' E 023°26'0 0.0
2018-Jun-02 20:58N 37°42' E 023°26'0 0.0
2018-Jun-02 20:28N 37°42' E 023°26'0 0.0
2018-Jun-02 19:58N 37°42' E 023°26'0 0.0
2018-Jun-02 18:16N 37°42' E 023°26'4 2.2
2018-Jun-02 16:13N 37°41' E 023°31'2 6.5
2018-Jun-02 15:59N 37°43' E 023°32'3 6.4
2018-Jun-02 15:29N 37°45' E 023°34'3 6.4
2018-Jun-02 15:00N 37°48' E 023°35'3 6.1
2018-Jun-02 14:30N 37°51' E 023°38'3 6.4
2018-Jun-02 14:00N 37°53' E 023°40'2 4.4
2018-Jun-02 13:28N 37°55' E 023°42'0 0.0
2018-Jun-02 12:58N 37°55' E 023°42'0 0.0
2018-Jun-02 12:28N 37°55' E 023°42'0 0.0
2018-Jun-02 11:58N 37°55' E 023°42'0 0.0
2018-Jun-02 11:28N 37°55' E 023°42'0 0.0
2018-Jun-02 10:58N 37°55' E 023°42'0 0.0
2018-Jun-02 10:28N 37°55' E 023°42'0 0.0
2018-Jun-02 09:58N 37°55' E 023°42'0 0.0
2018-Jun-02 09:28N 37°55' E 023°42'0 0.0
2018-Jun-02 08:58N 37°55' E 023°42'0 0.0
2018-Jun-02 08:28N 37°55' E 023°42'  

Dump ship's entire track history